createdAt,value
2022-09-10T00:01:59.253Z,5.50
2022-09-10T00:04:28.039Z,6.40
2022-09-10T00:06:57.056Z,6.43
2022-09-10T00:09:24.278Z,6.20
2022-09-10T00:11:51.290Z,6.90
2022-09-10T00:14:21.700Z,6.22
2022-09-10T00:16:49.273Z,7.00
2022-09-10T00:19:16.816Z,6.80
2022-09-10T00:21:44.632Z,7.47
2022-09-10T00:24:13.493Z,8.13
2022-09-10T00:26:41.638Z,8.90
2022-09-10T00:29:10.601Z,9.00
2022-09-10T00:31:38.310Z,9.02
2022-09-10T00:34:06.123Z,10.65
2022-09-10T00:36:36.817Z,10.70
2022-09-10T00:39:07.324Z,10.30
2022-09-10T00:41:38.079Z,10.75
2022-09-10T00:44:07.751Z,10.45
2022-09-10T00:46:41.644Z,11.55
2022-09-10T00:49:15.090Z,12.52
2022-09-10T00:51:43.645Z,13.52
2022-09-10T00:54:11.319Z,13.63
2022-09-10T00:56:40.106Z,13.65
2022-09-10T00:59:09.985Z,14.43
2022-09-10T01:01:38.827Z,13.93
2022-09-10T01:04:07.744Z,14.02
2022-09-10T01:06:36.156Z,14.02
2022-09-10T01:09:04.143Z,13.32
2022-09-10T01:11:45.623Z,14.10
2022-09-10T01:14:36.269Z,14.95
2022-09-10T01:17:11.474Z,14.68
2022-09-10T01:20:21.095Z,14.10
2022-09-10T01:23:15.718Z,14.63
2022-09-10T01:25:56.249Z,14.38
2022-09-10T01:28:30.178Z,15.98
2022-09-10T01:31:04.578Z,15.20
2022-09-10T01:33:37.414Z,15.52
2022-09-10T01:36:10.093Z,15.15
2022-09-10T01:38:39.137Z,16.25
2022-09-10T01:41:08.360Z,16.73
2022-09-10T01:43:41.938Z,17.20
2022-09-10T01:46:29.928Z,17.08
2022-09-10T01:49:22.069Z,18.33
2022-09-10T01:52:10.534Z,17.58
2022-09-10T01:54:50.128Z,20.30
2022-09-10T01:57:29.256Z,19.13
2022-09-10T02:00:09.788Z,19.52
2022-09-10T02:02:48.364Z,21.80
2022-09-10T02:05:18.212Z,21.48
2022-09-10T02:07:56.942Z,22.48
2022-09-10T02:10:24.476Z,22.23
2022-09-10T02:12:51.735Z,22.65
2022-09-10T02:15:38.173Z,23.00
2022-09-10T02:18:19.806Z,23.30
2022-09-10T02:20:49.515Z,22.58
2022-09-10T02:23:20.232Z,23.55
2022-09-10T02:25:49.222Z,23.65
2022-09-10T02:28:17.119Z,22.83
2022-09-10T02:30:48.260Z,22.80
2022-09-10T02:33:16.486Z,23.42
2022-09-10T02:35:43.883Z,23.13
2022-09-10T02:38:11.720Z,24.10
2022-09-10T02:40:39.294Z,24.75
2022-09-10T02:43:07.931Z,22.08
2022-09-10T02:45:36.807Z,22.48
2022-09-10T02:48:06.605Z,23.38
2022-09-10T02:50:34.336Z,23.20
2022-09-10T02:53:02.704Z,24.25
2022-09-10T02:55:31.405Z,23.88
2022-09-10T02:57:58.603Z,24.38
2022-09-10T03:00:26.199Z,25.92
2022-09-10T03:03:00.941Z,27.58
2022-09-10T03:05:31.119Z,26.52
2022-09-10T03:07:58.251Z,25.92
2022-09-10T03:10:25.413Z,26.50
2022-09-10T03:12:53.788Z,25.60
2022-09-10T03:15:20.989Z,25.77
2022-09-10T03:17:48.047Z,26.08
2022-09-10T03:20:15.267Z,25.63
2022-09-10T03:22:44.061Z,25.67
2022-09-10T03:25:15.071Z,24.83
2022-09-10T03:27:42.140Z,25.13
2022-09-10T03:30:10.496Z,25.73
2022-09-10T03:32:38.162Z,23.80
2022-09-10T03:35:07.952Z,22.92
2022-09-10T03:37:35.093Z,25.40
2022-09-10T03:40:05.969Z,25.30
2022-09-10T03:42:33.509Z,25.98
2022-09-10T03:45:00.718Z,25.10
2022-09-10T03:47:28.173Z,26.33
2022-09-10T03:49:56.172Z,26.52
2022-09-10T03:52:23.502Z,25.75
2022-09-10T03:54:51.391Z,25.80
2022-09-10T03:57:20.113Z,25.23
2022-09-10T03:59:47.280Z,24.42
2022-09-10T04:02:14.986Z,26.02
2022-09-10T04:04:42.867Z,26.40
2022-09-10T04:07:10.922Z,25.25
2022-09-10T04:09:38.035Z,26.90
2022-09-10T04:12:05.579Z,26.23
2022-09-10T04:14:36.154Z,25.35
2022-09-10T04:17:03.797Z,27.58
2022-09-10T04:19:31.805Z,26.52
2022-09-10T04:21:59.015Z,26.33
2022-09-10T04:24:26.116Z,25.23
2022-09-10T04:26:53.466Z,26.25
2022-09-10T04:29:20.852Z,26.58
2022-09-10T04:31:50.761Z,26.52
2022-09-10T04:34:19.456Z,24.90
2022-09-10T04:36:46.611Z,25.40
2022-09-10T04:39:14.945Z,23.88
2022-09-10T04:41:43.141Z,25.33
2022-09-10T04:44:10.856Z,26.30
2022-09-10T04:46:37.968Z,24.58
2022-09-10T04:49:11.250Z,24.75
2022-09-10T04:51:38.453Z,24.77
2022-09-10T04:54:05.636Z,25.02
2022-09-10T04:56:36.584Z,25.27
2022-09-10T04:59:04.997Z,25.63
2022-09-10T05:01:35.577Z,25.60
2022-09-10T05:04:03.694Z,24.23
2022-09-10T05:06:32.580Z,24.38
2022-09-10T05:08:59.638Z,24.42
2022-09-10T05:11:28.285Z,23.38
2022-09-10T05:13:55.372Z,23.40
2022-09-10T05:16:25.888Z,23.75
2022-09-10T05:18:54.887Z,24.85
2022-09-10T05:21:22.668Z,23.58
2022-09-10T05:23:53.952Z,23.45
2022-09-10T05:26:21.154Z,21.92
2022-09-10T05:28:48.625Z,20.58
2022-09-10T05:31:17.368Z,19.33
2022-09-10T05:33:46.274Z,19.30
2022-09-10T05:36:14.890Z,17.23
2022-09-10T05:38:45.649Z,16.65
2022-09-10T05:41:14.646Z,16.55
2022-09-10T05:43:47.251Z,16.40
2022-09-10T05:46:14.663Z,15.70
2022-09-10T05:48:46.102Z,15.02
2022-09-10T05:51:14.212Z,14.80
2022-09-10T05:53:42.323Z,14.18
2022-09-10T05:56:11.154Z,14.00
2022-09-10T05:58:41.228Z,14.13
2022-09-10T06:01:09.449Z,14.20
2022-09-10T06:03:37.933Z,14.27
2022-09-10T06:06:06.106Z,15.23
2022-09-10T06:08:35.716Z,14.80
2022-09-10T06:11:11.915Z,14.68
2022-09-10T06:13:49.731Z,16.42
2022-09-10T06:16:18.212Z,15.57
2022-09-10T06:18:45.829Z,16.98
2022-09-10T06:21:18.231Z,19.45
2022-09-10T06:23:53.065Z,21.83
2022-09-10T06:26:21.093Z,25.23
2022-09-10T06:28:51.657Z,27.27
2022-09-10T06:31:20.144Z,31.15
2022-09-10T06:33:50.206Z,31.73
2022-09-10T06:36:23.057Z,32.63
2022-09-10T06:38:51.622Z,33.08
2022-09-10T06:41:22.299Z,34.97
2022-09-10T06:44:00.073Z,34.10
2022-09-10T06:47:28.239Z,33.55
2022-09-10T06:49:25.604Z,32.50
2022-09-10T06:51:53.430Z,32.72
2022-09-10T06:54:20.613Z,31.42
2022-09-10T06:56:48.994Z,31.45
2022-09-10T06:59:18.418Z,30.52
2022-09-10T07:01:48.503Z,29.60
2022-09-10T07:04:17.949Z,28.73
2022-09-10T07:06:46.048Z,28.77
2022-09-10T07:09:17.057Z,28.02
2022-09-10T07:11:52.791Z,25.90
2022-09-10T07:14:21.542Z,26.17
2022-09-10T07:16:51.441Z,26.90
2022-09-10T07:19:20.865Z,26.88
2022-09-10T07:21:48.537Z,26.17
2022-09-10T07:24:16.735Z,26.33
2022-09-10T07:26:56.982Z,26.23
2022-09-10T07:29:31.219Z,25.52
2022-09-10T07:31:58.966Z,25.77
2022-09-10T07:34:27.760Z,26.50
2022-09-10T07:36:56.637Z,25.75
2022-09-10T07:39:25.846Z,24.88
2022-09-10T07:41:53.976Z,25.98
2022-09-10T07:44:27.721Z,25.25
2022-09-10T07:46:58.319Z,25.55
2022-09-10T07:49:27.823Z,25.23
2022-09-10T07:51:59.667Z,24.95
2022-09-10T07:54:31.082Z,25.35
2022-09-10T07:56:58.405Z,24.75
2022-09-10T07:59:28.241Z,23.45
2022-09-10T08:02:00.907Z,23.33
2022-09-10T08:04:35.932Z,22.67
2022-09-10T08:07:06.003Z,21.65
2022-09-10T08:09:35.591Z,21.70
2022-09-10T08:12:04.455Z,21.55
2022-09-10T08:14:33.131Z,22.38
2022-09-10T08:17:01.814Z,21.23
2022-09-10T08:19:29.567Z,19.77
2022-09-10T08:21:57.000Z,21.02
2022-09-10T08:24:31.351Z,20.25
2022-09-10T08:26:58.486Z,19.10
2022-09-10T08:29:26.682Z,16.45
2022-09-10T08:31:55.360Z,15.13
2022-09-10T08:34:27.548Z,14.77
2022-09-10T08:37:03.429Z,15.85
2022-09-10T08:39:32.856Z,14.98
2022-09-10T08:42:05.920Z,15.23
2022-09-10T08:44:41.818Z,13.90
2022-09-10T08:47:25.143Z,13.23
2022-09-10T08:50:00.491Z,14.02
2022-09-10T08:52:34.099Z,13.35
2022-09-10T08:55:10.763Z,13.68
2022-09-10T08:57:45.218Z,13.32
2022-09-10T09:00:16.463Z,13.32
2022-09-10T09:02:55.830Z,11.43
2022-09-10T09:05:25.896Z,11.93
2022-09-10T09:07:56.239Z,12.30
2022-09-10T09:10:36.401Z,12.10
2022-09-10T09:13:38.747Z,11.00
2022-09-10T09:16:20.669Z,13.13
2022-09-10T09:19:07.351Z,16.10
2022-09-10T09:21:43.921Z,15.55
2022-09-10T09:24:22.614Z,16.42
2022-09-10T09:26:57.446Z,17.63
2022-09-10T09:29:30.260Z,17.55
2022-09-10T09:32:03.351Z,17.48
2022-09-10T09:34:36.468Z,18.33
2022-09-10T09:37:15.820Z,17.50
2022-09-10T09:39:53.682Z,15.35
2022-09-10T09:42:29.125Z,12.10
2022-09-10T09:45:03.388Z,11.80
2022-09-10T09:47:31.268Z,10.40
2022-09-10T09:50:00.414Z,11.80
2022-09-10T09:52:31.248Z,12.32
2022-09-10T09:55:14.323Z,10.98
2022-09-10T09:57:42.820Z,10.88
2022-09-10T10:00:33.264Z,11.27
2022-09-10T10:03:06.145Z,11.43
2022-09-10T10:05:36.104Z,11.65
2022-09-10T10:08:03.431Z,10.73
2022-09-10T10:10:30.538Z,11.07
2022-09-10T10:12:57.706Z,11.40
2022-09-10T10:15:36.802Z,11.20
2022-09-10T10:18:28.896Z,11.38
2022-09-10T10:21:13.832Z,10.73
2022-09-10T10:23:41.209Z,10.57
2022-09-10T10:26:26.186Z,10.95
2022-09-10T10:28:58.587Z,10.88
2022-09-10T10:31:34.996Z,10.85
2022-09-10T10:34:15.697Z,13.75
2022-09-10T10:36:55.468Z,16.90
2022-09-10T10:39:30.068Z,19.30
2022-09-10T10:42:06.074Z,16.08
2022-09-10T10:44:55.282Z,18.05
2022-09-10T10:47:40.839Z,17.80
2022-09-10T10:50:21.638Z,19.05
2022-09-10T10:53:11.751Z,22.20
2022-09-10T10:55:42.066Z,21.08
2022-09-10T10:58:34.859Z,18.83
2022-09-10T11:01:07.488Z,17.92
2022-09-10T11:03:42.864Z,12.68
2022-09-10T11:06:15.862Z,11.52
2022-09-10T11:08:50.748Z,11.25
2022-09-10T11:11:22.107Z,11.68
2022-09-10T11:13:55.456Z,10.07
2022-09-10T11:16:28.734Z,10.40
2022-09-10T11:19:01.539Z,7.20
2022-09-10T11:21:34.670Z,7.93
2022-09-10T11:24:11.952Z,7.18
2022-09-10T11:26:44.350Z,6.53
2022-09-10T11:31:53.850Z,2.97
2022-09-10T11:34:28.500Z,2.33
2022-09-10T11:37:03.525Z,2.35
2022-09-10T11:39:35.199Z,3.22
2022-09-10T11:42:13.822Z,3.00
2022-09-10T11:44:50.779Z,2.40
2022-09-10T11:47:22.890Z,2.47
2022-09-10T11:49:55.207Z,2.30
2022-09-10T11:52:25.999Z,2.25
2022-09-10T11:54:56.193Z,2.60
2022-09-10T11:57:32.653Z,2.80
2022-09-10T12:00:16.200Z,2.67
2022-09-10T12:03:10.514Z,2.83
2022-09-10T12:05:56.525Z,2.88
2022-09-10T12:08:36.282Z,2.88
2022-09-10T12:11:15.962Z,4.20
2022-09-10T12:13:45.663Z,4.97
2022-09-10T12:16:21.025Z,4.65
2022-09-10T12:18:51.320Z,4.28
2022-09-10T12:21:27.877Z,3.72
2022-09-10T12:23:55.956Z,4.55
2022-09-10T12:26:24.699Z,4.47
2022-09-10T12:29:04.849Z,4.57
2022-09-10T12:32:16.022Z,4.38
2022-09-10T12:34:43.100Z,3.70
2022-09-10T12:37:24.807Z,2.58
2022-09-10T12:40:29.479Z,2.42
2022-09-10T12:43:37.687Z,2.03
2022-09-10T12:46:18.094Z,1.83
2022-09-10T12:48:47.123Z,1.92
2022-09-10T12:51:30.877Z,1.85
2022-09-10T12:54:13.126Z,1.90
2022-09-10T12:56:50.269Z,1.92
2022-09-10T12:59:36.439Z,2.00
2022-09-10T13:02:20.421Z,1.70
2022-09-10T13:04:55.428Z,1.90
2022-09-10T13:07:26.197Z,2.20
2022-09-10T13:10:00.928Z,2.20
2022-09-10T13:12:29.314Z,2.10
2022-09-10T13:14:58.069Z,2.50
2022-09-10T13:17:40.816Z,2.78
2022-09-10T13:20:28.063Z,1.70
2022-09-10T13:22:57.764Z,1.73
2022-09-10T13:25:39.739Z,1.70
2022-09-10T13:28:44.540Z,1.50
2022-09-10T13:31:18.465Z,1.55
2022-09-10T13:34:03.989Z,1.67
2022-09-10T13:36:37.448Z,2.78
2022-09-10T13:39:20.670Z,2.30
2022-09-10T13:42:06.324Z,3.15
2022-09-10T13:44:52.179Z,3.92
2022-09-10T13:47:27.162Z,4.05
2022-09-10T13:49:58.020Z,4.82
2022-09-10T13:52:29.769Z,5.53
2022-09-10T13:54:59.904Z,6.00
2022-09-10T13:57:30.153Z,6.35
2022-09-10T14:00:04.860Z,6.10
2022-09-10T14:02:45.232Z,5.63
2022-09-10T14:05:34.083Z,5.20
2022-09-10T14:08:06.576Z,4.88
2022-09-10T14:10:49.470Z,5.07
2022-09-10T14:13:22.457Z,5.10
2022-09-10T14:15:52.495Z,4.38
2022-09-10T14:18:23.140Z,3.50
2022-09-10T14:20:50.467Z,3.63
2022-09-10T14:23:17.797Z,3.03
2022-09-10T14:25:46.305Z,3.47
2022-09-10T14:28:25.249Z,3.17
2022-09-10T14:31:08.453Z,4.07
2022-09-10T14:33:39.582Z,3.80
2022-09-10T14:36:16.273Z,3.33
2022-09-10T14:38:45.355Z,3.17
2022-09-10T14:41:21.887Z,3.70
2022-09-10T14:43:50.720Z,3.40
2022-09-10T14:46:48.117Z,3.35
2022-09-10T14:49:18.076Z,3.08
2022-09-10T14:51:45.383Z,3.40
2022-09-10T14:54:12.944Z,3.75
2022-09-10T14:56:42.666Z,4.20
2022-09-10T14:59:15.661Z,4.85
2022-09-10T15:01:44.475Z,5.72
2022-09-10T15:04:14.417Z,5.10
2022-09-10T15:06:46.331Z,5.40
2022-09-10T15:09:14.828Z,6.15
2022-09-10T15:11:50.485Z,5.82
2022-09-10T15:14:18.317Z,7.20
2022-09-10T15:16:45.379Z,7.50
2022-09-10T15:19:12.535Z,8.40
2022-09-10T15:21:39.895Z,8.35
2022-09-10T15:24:12.185Z,8.13
2022-09-10T15:26:39.319Z,8.52
2022-09-10T15:29:06.334Z,7.72
2022-09-10T15:31:33.506Z,7.30
2022-09-10T15:34:00.581Z,7.45
2022-09-10T15:36:28.296Z,6.95
2022-09-10T15:38:55.778Z,7.38
2022-09-10T15:41:24.239Z,7.10
2022-09-10T15:43:51.446Z,6.88
2022-09-10T15:46:20.009Z,6.82
2022-09-10T15:48:47.529Z,6.65
2022-09-10T15:51:17.087Z,6.15
2022-09-10T15:53:45.960Z,5.13
2022-09-10T15:56:13.624Z,5.40
2022-09-10T15:58:47.455Z,4.80
2022-09-10T16:01:16.219Z,4.85
2022-09-10T16:03:48.183Z,4.90
2022-09-10T16:06:16.038Z,5.72
2022-09-10T16:08:48.538Z,5.82
2022-09-10T16:11:15.643Z,5.90
2022-09-10T16:13:45.467Z,6.32
2022-09-10T16:16:16.600Z,6.72
2022-09-10T16:18:43.857Z,6.30
2022-09-10T16:21:13.595Z,6.32
2022-09-10T16:23:42.895Z,6.97
2022-09-10T16:26:15.699Z,7.35
2022-09-10T16:28:48.825Z,7.50
2022-09-10T16:31:18.380Z,7.90
2022-09-10T16:33:45.911Z,8.45
2022-09-10T16:36:15.091Z,8.82
2022-09-10T16:38:46.450Z,8.77
2022-09-10T16:41:15.207Z,8.13
2022-09-10T16:43:44.180Z,8.93
2022-09-10T16:46:12.748Z,9.05
2022-09-10T16:48:45.023Z,8.82
2022-09-10T16:51:13.711Z,10.18
2022-09-10T16:53:42.264Z,9.73
2022-09-10T16:56:12.038Z,9.85
2022-09-10T16:58:41.251Z,10.30
2022-09-10T17:01:10.163Z,9.95
2022-09-10T17:03:40.634Z,9.50
2022-09-10T17:06:13.791Z,9.63
2022-09-10T17:08:41.000Z,10.07
2022-09-10T17:11:08.789Z,10.20
2022-09-10T17:13:36.113Z,10.50
2022-09-10T17:16:18.332Z,9.27
2022-09-10T17:18:45.679Z,8.55
2022-09-10T17:21:14.297Z,7.25
2022-09-10T17:23:41.424Z,7.28
2022-09-10T17:26:09.574Z,6.90
2022-09-10T17:28:37.142Z,7.47
2022-09-10T17:31:05.017Z,7.40
2022-09-10T17:33:34.099Z,7.43
2022-09-10T17:36:03.755Z,7.38
2022-09-10T17:38:33.759Z,8.27
2022-09-10T17:41:02.721Z,7.85
2022-09-10T17:43:33.928Z,7.30
2022-09-10T17:46:03.662Z,8.15
2022-09-10T17:48:31.442Z,8.25
2022-09-10T17:51:00.132Z,8.85
2022-09-10T17:53:27.455Z,8.38
2022-09-10T17:55:54.800Z,8.98
2022-09-10T17:58:22.369Z,9.98
2022-09-10T18:00:49.505Z,9.98
2022-09-10T18:03:17.692Z,10.82
2022-09-10T18:05:45.817Z,11.45
2022-09-10T18:08:14.276Z,12.02
2022-09-10T18:10:41.384Z,11.52
2022-09-10T18:13:09.954Z,12.52
2022-09-10T18:15:45.392Z,13.23
2022-09-10T18:18:12.780Z,14.18
2022-09-10T18:20:39.822Z,14.23
2022-09-10T18:23:07.070Z,14.38
2022-09-10T18:25:37.109Z,14.75
2022-09-10T18:28:04.151Z,15.23
2022-09-10T18:30:31.545Z,16.15
2022-09-10T18:32:58.747Z,16.48
2022-09-10T18:35:26.108Z,16.58
2022-09-10T18:37:53.163Z,17.23
2022-09-10T18:40:20.241Z,17.13
2022-09-10T18:42:48.726Z,18.38
2022-09-10T18:45:16.172Z,18.48
2022-09-10T18:47:45.370Z,17.67
2022-09-10T18:50:13.165Z,17.42
2022-09-10T18:52:41.509Z,17.48
2022-09-10T18:55:09.179Z,17.27
2022-09-10T18:57:36.550Z,17.42
2022-09-10T19:00:06.114Z,17.55
2022-09-10T19:02:33.230Z,16.48
2022-09-10T19:05:17.559Z,17.30
2022-09-10T19:07:46.628Z,17.65
2022-09-10T19:10:13.778Z,18.02
2022-09-10T19:12:40.863Z,18.33
2022-09-10T19:15:10.970Z,18.50
2022-09-10T19:17:38.028Z,18.77
2022-09-10T19:20:06.196Z,18.48
2022-09-10T19:22:33.795Z,19.02
2022-09-10T19:25:01.442Z,18.77
2022-09-10T19:27:29.413Z,18.02
2022-09-10T19:29:56.566Z,18.20
2022-09-10T19:32:25.540Z,19.05
2022-09-10T19:34:52.618Z,18.55
2022-09-10T19:37:19.816Z,19.02
2022-09-10T19:39:47.521Z,19.38
2022-09-10T19:42:14.865Z,19.70
2022-09-10T19:44:42.112Z,19.98
2022-09-10T19:47:09.152Z,20.30
2022-09-10T19:49:38.074Z,20.20
2022-09-10T19:52:05.201Z,20.30
2022-09-10T19:54:32.244Z,19.98
2022-09-10T19:56:59.227Z,19.27
2022-09-10T19:59:26.275Z,21.02
2022-09-10T20:01:53.414Z,20.40
2022-09-10T20:04:20.612Z,20.60
2022-09-10T20:06:50.303Z,19.95
2022-09-10T20:09:17.476Z,20.05
2022-09-10T20:11:45.033Z,20.00
2022-09-10T20:14:13.577Z,20.65
2022-09-10T20:16:42.952Z,21.80
2022-09-10T20:19:12.371Z,20.75
2022-09-10T20:21:39.712Z,21.95
2022-09-10T20:24:08.678Z,22.17
2022-09-10T20:26:48.853Z,22.77
2022-09-10T20:29:17.960Z,22.33
2022-09-10T20:31:47.023Z,23.40
2022-09-10T20:34:17.132Z,23.52
2022-09-10T20:36:44.305Z,23.30
2022-09-10T20:39:15.113Z,22.88
2022-09-10T20:41:42.400Z,23.00
2022-09-10T20:44:13.044Z,25.38
2022-09-10T20:46:41.535Z,24.10
2022-09-10T20:49:10.846Z,25.73
2022-09-10T20:51:40.393Z,25.50
2022-09-10T20:54:10.429Z,24.55
2022-09-10T20:56:39.065Z,24.23
2022-09-10T20:59:06.416Z,25.35
2022-09-10T21:01:33.928Z,25.42
2022-09-10T21:04:03.000Z,26.10
2022-09-10T21:06:32.087Z,26.58
2022-09-10T21:09:00.111Z,27.42
2022-09-10T21:11:29.692Z,26.52
2022-09-10T21:13:59.422Z,26.38
2022-09-10T21:16:28.280Z,25.38
2022-09-10T21:18:57.569Z,25.10
2022-09-10T21:21:27.076Z,25.02
2022-09-10T21:23:55.859Z,25.83
2022-09-10T21:26:25.184Z,24.40
2022-09-10T21:28:54.000Z,25.75
2022-09-10T21:31:23.000Z,25.63
2022-09-10T21:33:50.298Z,26.60
2022-09-10T21:36:19.031Z,25.67
2022-09-10T21:38:49.756Z,26.55
2022-09-10T21:41:19.165Z,26.75
2022-09-10T21:43:47.447Z,26.83
2022-09-10T21:46:15.292Z,27.88
2022-09-10T21:48:44.413Z,26.88
2022-09-10T21:51:13.763Z,27.90
2022-09-10T21:53:41.922Z,28.27
2022-09-10T21:56:11.269Z,27.70
2022-09-10T21:58:38.802Z,27.67
2022-09-10T22:01:11.313Z,28.30
2022-09-10T22:03:39.272Z,27.70
2022-09-10T22:06:11.283Z,27.88
2022-09-10T22:08:40.312Z,27.70
2022-09-10T22:11:09.452Z,28.35
2022-09-10T22:13:37.925Z,27.73
2022-09-10T22:16:05.895Z,27.45
2022-09-10T22:18:34.248Z,28.77
2022-09-10T22:21:02.108Z,28.35
2022-09-10T22:23:32.269Z,29.00
2022-09-10T22:26:04.157Z,27.45
2022-09-10T22:28:34.879Z,25.80
2022-09-10T22:31:10.525Z,28.42
2022-09-10T22:33:38.577Z,28.63
2022-09-10T22:36:13.903Z,28.67
2022-09-10T22:38:43.034Z,28.67
2022-09-10T22:41:10.607Z,28.02
2022-09-10T22:43:38.644Z,29.75
2022-09-10T22:46:07.297Z,30.05
2022-09-10T22:48:35.415Z,32.08
2022-09-10T22:51:02.836Z,33.38
2022-09-10T22:53:30.205Z,33.50
2022-09-10T22:55:58.727Z,32.50
2022-09-10T22:58:26.541Z,34.20
2022-09-10T23:00:54.319Z,32.97
2022-09-10T23:03:21.993Z,33.65
2022-09-10T23:05:49.432Z,34.10
2022-09-10T23:08:17.057Z,34.55
2022-09-10T23:10:44.158Z,33.67
2022-09-10T23:13:12.605Z,34.75
2022-09-10T23:15:40.107Z,35.25
2022-09-10T23:18:07.327Z,33.80
2022-09-10T23:20:34.450Z,33.30
2022-09-10T23:23:01.472Z,33.85
2022-09-10T23:25:28.548Z,34.63
2022-09-10T23:27:55.863Z,35.95
2022-09-10T23:30:24.330Z,35.67
2022-09-10T23:32:51.613Z,35.38
2022-09-10T23:35:18.846Z,36.85
2022-09-10T23:37:46.263Z,36.33
2022-09-10T23:40:14.292Z,36.25
2022-09-10T23:42:41.391Z,35.45
2022-09-10T23:45:09.459Z,37.83
2022-09-10T23:47:37.861Z,36.05
2022-09-10T23:50:07.753Z,36.63
2022-09-10T23:52:34.819Z,37.15
2022-09-10T23:55:02.039Z,36.45
2022-09-10T23:57:29.080Z,37.63
2022-09-10T23:59:56.476Z,37.63
